Pagrindinis puslapis
METAR-TAF:

METAR-TAF

Oro uostai :

Ankona, Italija

platuma: 43-37N, ilguma: 013-22E, Aukštis: 12 m

Dabartinis oras

Ataskaita buvo paskelbta 55 minutes, ne 10:50 UTC
Vėjas 7 kt iš Šiaurės/Šiaurės Vakarų
Temperatūra 20°C
Drėgmė 64%
Slėgis 1024 hPa
Matomumas 10 km arba daugiau
nėra debesų žemiau 1500 m ir nėra kamuolinių lietaus debesų

METAR: LIPY 211050Z 33007KT CAVOK 20/13 Q1024

Laikas: 13:45 (11:45 UTC)

Prognozė

Ataskaita buvo paskelbta 45 minutes, ne 11:00 UTC
Prognozė galioja nuo 21 metu 12 UTC su 22 metu 12 UTC
Vėjas 12 kt iš Šiaurės
Matomumas 10 km arba daugiau
nėra debesų žemiau 1500 m ir nėra kamuolinių lietaus debesų
Tapsmas
nuo 21 metu 18 UTC su 21 metu 20 UTC
Vėjas 5 kt nuo kintamojo kryptimis
Tapsmas
nuo 22 metu 10 UTC su 22 metu 12 UTC
Vėjas 12 kt iš Pietryčių

TAF: LIPY 211100Z 2112/2212 01012KT CAVOK BECMG 2118/2120 VRB05KT BECMG 2210/2212 13012KT

Orai ataskaitas ir orų prognozės (METAR, TAF).

turimą stotys yra geltonos ir raudonos taškus žemėlapyje.

Perkelti pele per norėdami pamatyti stoties vardą.

Tada spustelėkite, norėdami matyti oro stebėjimo ir prognozės.

Norėdami pakeisti žemėlapį: spustelėkite ant žalios mygtukų su juodo kryžiaus žemyn,; žalią mygtuką su brūkšneliu, jei norite nutolinti; arba žalių rodyklių gretimoms žemėlapius.


METAR-TAF: